Time;durP1;ratioP1;P1;durP2;ratioP2;P2;SDS_P1;SDS_P2;PMS_P1;PMS_P2;Temp;Humidity;BMP_temperature;BMP_pressure;BME280_temperature;BME280_humidity;BME280_pressure;Samples;Min_cycle;Max_cycle;Signal;HPM_P1;HPM_P2
2022/12/22 03:26:24;;;;;;;13.40;11.10;;;9.40;99.90;;;;;;5060969;28;20431;-59
2022/12/22 03:28:50;;;;;;;14.00;10.95;;;9.50;99.90;;;;;;5063567;28;20359;-59
2022/12/22 03:31:16;;;;;;;15.38;11.13;;;9.50;99.90;;;;;;5064019;28;20059;-59
2022/12/22 03:33:42;;;;;;;14.80;11.27;;;9.50;99.90;;;;;;5060593;28;20394;-61
2022/12/22 03:36:08;;;;;;;12.77;11.18;;;9.50;99.90;;;;;;5062511;28;20147;-61
2022/12/22 03:38:34;;;;;;;14.90;10.80;;;9.60;99.90;;;;;;5059808;28;20040;-60
2022/12/22 03:40:59;;;;;;;13.73;10.88;;;9.60;99.90;;;;;;5061796;28;20033;-60
2022/12/22 03:46:30;;;;;;;13.82;10.73;;;9.60;99.90;;;;;;5062226;28;20454;-59
2022/12/22 03:49:09;;;;;;;11.68;9.65;;;9.60;99.90;;;;;;5057201;28;20514;-60
2022/12/22 03:51:40;;;;;;;11.52;10.18;;;9.50;99.90;;;;;;5060189;28;20032;-61
2022/12/22 03:54:06;;;;;;;11.13;9.48;;;9.60;99.90;;;;;;5064365;28;20503;-61
2022/12/22 03:56:31;;;;;;;11.00;8.80;;;9.50;99.90;;;;;;5063065;28;20040;-61
2022/12/22 03:58:57;;;;;;;12.10;9.13;;;9.50;99.90;;;;;;5063788;28;20032;-61
2022/12/22 04:01:23;;;;;;;11.30;8.77;;;9.60;99.90;;;;;;5058005;28;20028;-61
2022/12/22 04:03:49;;;;;;;10.65;8.65;;;9.60;99.90;;;;;;5061021;28;20637;-63
2022/12/22 04:06:15;;;;;;;12.30;9.10;;;9.60;99.90;;;;;;5055822;28;20083;-61
2022/12/22 04:08:41;;;;;;;11.02;8.65;;;9.60;99.90;;;;;;5064503;28;20047;-61
2022/12/22 04:13:54;;;;;;;11.10;9.05;;;9.60;99.90;;;;;;5057743;28;20043;-62
2022/12/22 04:16:20;;;;;;;11.48;8.18;;;9.60;99.90;;;;;;5062552;28;20483;-62
2022/12/22 04:18:46;;;;;;;12.35;8.63;;;9.50;99.90;;;;;;5060412;28;20116;-63
2022/12/22 04:21:11;;;;;;;10.50;8.48;;;9.60;99.90;;;;;;5062461;28;20051;-61
2022/12/22 04:23:37;;;;;;;8.75;7.28;;;9.60;99.90;;;;;;5056735;28;20040;-62
2022/12/22 04:26:03;;;;;;;10.98;7.75;;;9.60;99.90;;;;;;5060559;28;20402;-62
2022/12/22 04:28:28;;;;;;;12.40;8.65;;;9.60;99.90;;;;;;5063039;28;20048;-61
2022/12/22 04:30:54;;;;;;;11.38;7.57;;;9.60;99.90;;;;;;5057265;28;20047;-61
2022/12/22 04:33:19;;;;;;;11.07;8.15;;;9.60;99.90;;;;;;5060942;28;20040;-61
2022/12/22 04:35:45;;;;;;;11.27;7.88;;;9.60;99.90;;;;;;5060326;28;20082;-61
2022/12/22 04:38:10;;;;;;;9.60;7.95;;;9.60;99.90;;;;;;5065774;28;20029;-61
2022/12/22 04:40:36;;;;;;;9.40;7.90;;;9.60;99.90;;;;;;5066611;28;20025;-61
2022/12/22 04:43:01;;;;;;;9.73;7.93;;;9.60;99.90;;;;;;5063643;28;20539;-61
2022/12/22 04:45:27;;;;;;;12.05;8.30;;;9.60;99.90;;;;;;5065024;28;20385;-61
2022/12/22 04:47:53;;;;;;;10.43;7.80;;;9.60;99.90;;;;;;5059471;28;20029;-61
2022/12/22 04:50:18;;;;;;;12.10;8.23;;;9.50;99.90;;;;;;5064568;28;20468;-62
2022/12/22 04:52:44;;;;;;;11.07;8.25;;;9.60;99.90;;;;;;5064624;28;20040;-63
2022/12/22 04:55:09;;;;;;;10.45;9.02;;;9.70;99.90;;;;;;5064275;28;20043;-61
2022/12/22 04:57:35;;;;;;;10.77;8.68;;;9.60;99.90;;;;;;5056436;28;20057;-62
2022/12/22 05:00:02;;;;;;;10.65;8.00;;;9.60;99.90;;;;;;5067614;28;20122;-61
2022/12/22 05:02:27;;;;;;;11.93;8.32;;;9.60;99.90;;;;;;5061188;28;20048;-61
2022/12/22 05:04:53;;;;;;;12.05;8.90;;;9.60;99.90;;;;;;5060947;28;20036;-61
2022/12/22 05:07:19;;;;;;;10.65;8.13;;;9.60;99.90;;;;;;5060771;28;20116;-62
2022/12/22 05:09:45;;;;;;;11.02;8.30;;;9.60;99.90;;;;;;5056492;28;20040;-63
2022/12/22 05:14:54;;;;;;;9.57;8.25;;;9.70;99.90;;;;;;5062713;28;20036;-62
2022/12/22 05:17:20;;;;;;;10.25;8.20;;;9.60;99.90;;;;;;5058761;28;20036;-61
2022/12/22 05:19:45;;;;;;;11.48;8.82;;;9.70;99.90;;;;;;5065010;28;20037;-62
2022/12/22 05:22:11;;;;;;;12.27;8.90;;;9.60;99.90;;;;;;5060671;28;20511;-62
2022/12/22 05:24:37;;;;;;;10.50;8.77;;;9.60;99.90;;;;;;5060360;28;20037;-61
2022/12/22 05:27:02;;;;;;;10.23;8.60;;;9.60;99.90;;;;;;5059332;28;20477;-62
2022/12/22 05:29:28;;;;;;;10.88;8.75;;;9.60;99.90;;;;;;5052358;28;20033;-62
2022/12/22 05:31:53;;;;;;;9.98;8.40;;;9.60;99.90;;;;;;5058201;28;20443;-62
2022/12/22 05:34:19;;;;;;;10.85;8.70;;;9.70;99.90;;;;;;5053656;28;20669;-62
2022/12/22 05:36:44;;;;;;;11.05;8.60;;;9.60;99.90;;;;;;5057325;28;20377;-61
2022/12/22 05:39:10;;;;;;;12.05;8.48;;;9.70;99.90;;;;;;5056160;28;20605;-62
2022/12/22 05:41:35;;;;;;;10.38;8.65;;;9.60;99.90;;;;;;5061677;28;20455;-59
2022/12/22 05:44:01;;;;;;;9.75;8.15;;;9.60;99.90;;;;;;5066601;28;20457;-59
2022/12/22 05:46:26;;;;;;;11.52;8.30;;;9.70;99.90;;;;;;5061610;28;20958;-60
2022/12/22 05:48:52;;;;;;;11.45;8.52;;;9.80;99.90;;;;;;5061649;28;20037;-60
2022/12/22 05:51:17;;;;;;;10.52;8.95;;;9.70;99.90;;;;;;5065162;28;20089;-59
2022/12/22 05:53:43;;;;;;;14.23;10.30;;;9.60;99.90;;;;;;5065495;28;20082;-60
2022/12/22 05:56:09;;;;;;;13.30;9.75;;;9.70;99.90;;;;;;5065809;28;20524;-61
2022/12/22 05:58:37;;;;;;;14.57;10.68;;;10.00;99.90;;;;;;5062665;28;20037;-60
2022/12/22 06:01:03;;;;;;;15.25;10.20;;;9.90;99.90;;;;;;5064439;28;20389;-59
2022/12/22 06:03:29;;;;;;;15.75;10.70;;;9.60;99.90;;;;;;5056534;28;20515;-59
2022/12/22 06:05:55;;;;;;;16.85;10.60;;;9.50;99.90;;;;;;5064011;28;20301;-61
2022/12/22 06:08:21;;;;;;;17.00;12.05;;;9.60;99.90;;;;;;5060361;28;20047;-60
2022/12/22 06:10:46;;;;;;;14.63;11.43;;;9.60;99.90;;;;;;5076352;28;20043;-60
2022/12/22 06:13:12;;;;;;;21.35;14.63;;;9.60;99.90;;;;;;5066874;28;20675;-62
2022/12/22 06:15:37;;;;;;;15.95;11.23;;;9.60;99.90;;;;;;5060139;28;20033;-60
2022/12/22 06:18:03;;;;;;;16.02;11.60;;;9.60;99.90;;;;;;5066983;28;20069;-61
2022/12/22 06:20:29;;;;;;;15.77;11.88;;;9.50;99.90;;;;;;5063784;28;20047;-61
2022/12/22 06:22:54;;;;;;;15.55;11.63;;;9.60;99.90;;;;;;5065381;28;20040;-61
2022/12/22 06:25:20;;;;;;;14.98;12.23;;;9.60;99.90;;;;;;5065710;28;20486;-60
2022/12/22 06:27:46;;;;;;;15.05;11.23;;;9.70;99.90;;;;;;5060217;28;20047;-61
2022/12/22 06:30:12;;;;;;;17.30;12.38;;;9.80;99.90;;;;;;5056824;28;20025;-61
2022/12/22 06:32:38;;;;;;;16.73;11.85;;;9.70;99.90;;;;;;5061298;28;20434;-61
2022/12/22 06:35:05;;;;;;;15.85;12.75;;;9.70;99.90;;;;;;5072744;28;20029;-61
2022/12/22 06:37:30;;;;;;;14.80;12.00;;;9.80;99.90;;;;;;5080183;28;20506;-61
2022/12/22 06:39:56;;;;;;;15.00;12.48;;;9.70;99.90;;;;;;5075671;28;20029;-61
2022/12/22 06:45:06;;;;;;;14.45;12.20;;;9.70;99.90;;;;;;5068425;28;20044;-61
2022/12/22 06:47:32;;;;;;;17.08;12.45;;;9.70;99.90;;;;;;5068968;28;20047;-61
2022/12/22 06:49:57;;;;;;;14.38;12.00;;;9.80;99.90;;;;;;5079112;28;20024;-60
2022/12/22 06:52:23;;;;;;;14.27;11.77;;;9.80;99.90;;;;;;5062871;28;20032;-60
2022/12/22 06:54:48;;;;;;;14.63;10.98;;;9.70;99.90;;;;;;5058741;28;20032;-62
2022/12/22 06:57:14;;;;;;;22.42;16.30;;;9.70;99.90;;;;;;5065103;28;20571;-61
2022/12/22 06:59:40;;;;;;;24.65;17.35;;;9.70;99.90;;;;;;5066088;28;20262;-60
2022/12/22 07:02:05;;;;;;;22.88;16.30;;;9.90;99.90;;;;;;5065087;28;20032;-60
2022/12/22 07:04:31;;;;;;;20.63;16.50;;;9.80;99.90;;;;;;5067193;28;20131;-61
2022/12/22 07:06:57;;;;;;;18.80;15.18;;;9.90;99.90;;;;;;5068161;28;20430;-62
2022/12/22 07:09:22;;;;;;;23.98;16.30;;;9.90;99.90;;;;;;5062876;28;20663;-60
2022/12/22 07:11:48;;;;;;;23.52;16.35;;;9.90;99.90;;;;;;5067764;28;20087;-60
2022/12/22 07:14:13;;;;;;;21.95;17.58;;;9.90;99.90;;;;;;5065425;28;20045;-61
2022/12/22 07:16:39;;;;;;;23.38;17.40;;;9.90;99.90;;;;;;5062975;28;20131;-60
2022/12/22 07:19:04;;;;;;;21.80;17.00;;;9.70;99.90;;;;;;5066958;28;20040;-60
2022/12/22 07:21:30;;;;;;;23.05;17.58;;;9.70;99.90;;;;;;5063173;28;20040;-59
2022/12/22 07:23:56;;;;;;;23.45;16.90;;;9.60;99.90;;;;;;5063561;28;20036;-61
2022/12/22 07:26:21;;;;;;;29.52;20.77;;;9.70;99.90;;;;;;5063845;28;20037;-61
2022/12/22 07:28:47;;;;;;;27.15;20.00;;;9.60;99.90;;;;;;5063696;28;20381;-61
2022/12/22 07:31:16;;;;;;;31.40;20.40;;;9.60;99.90;;;;;;5058520;28;20507;-61
2022/12/22 07:33:41;;;;;;;29.90;21.40;;;9.70;99.90;;;;;;5063704;28;20045;-61
2022/12/22 07:36:11;;;;;;;29.35;21.83;;;9.70;99.90;;;;;;5063580;28;20044;-61
2022/12/22 07:38:38;;;;;;;31.08;19.92;;;9.70;99.90;;;;;;5059820;28;20507;-62
2022/12/22 07:43:50;;;;;;;32.17;19.23;;;9.70;99.90;;;;;;5067030;28;20055;-61
2022/12/22 07:46:15;;;;;;;29.30;18.35;;;9.80;99.90;;;;;;5061167;28;20040;-61
2022/12/22 07:51:25;;;;;;;30.08;17.92;;;9.80;99.90;;;;;;5058628;28;20036;-62
2022/12/22 07:53:51;;;;;;;31.83;18.15;;;9.80;99.90;;;;;;5061341;28;20037;-61
2022/12/22 07:56:16;;;;;;;33.83;18.63;;;9.80;99.90;;;;;;5061485;28;20043;-61
2022/12/22 07:58:42;;;;;;;36.47;19.35;;;9.70;99.90;;;;;;5057814;28;20035;-62
2022/12/22 08:01:08;;;;;;;37.80;20.55;;;9.70;99.90;;;;;;5063508;28;20388;-62
2022/12/22 08:03:33;;;;;;;37.90;20.52;;;9.70;99.90;;;;;;5061810;28;20484;-62
2022/12/22 08:06:03;;;;;;;41.60;22.10;;;9.70;99.90;;;;;;5060761;28;20504;-61
2022/12/22 08:08:28;;;;;;;41.83;22.13;;;9.70;99.90;;;;;;5058684;28;20721;-61
2022/12/22 08:10:54;;;;;;;43.33;22.73;;;9.60;99.90;;;;;;5061942;28;20127;-62
2022/12/22 08:13:19;;;;;;;43.78;23.05;;;9.60;99.90;;;;;;5061453;28;20021;-61
2022/12/22 08:15:45;;;;;;;47.33;23.00;;;9.60;99.90;;;;;;5061290;28;20029;-61
2022/12/22 08:18:11;;;;;;;44.90;22.83;;;9.60;99.90;;;;;;5060085;28;20036;-62
2022/12/22 08:20:36;;;;;;;44.00;23.45;;;9.70;99.90;;;;;;5058693;28;20036;-63
2022/12/22 08:23:02;;;;;;;43.15;23.00;;;9.60;99.90;;;;;;5058324;28;20036;-61
2022/12/22 08:25:29;;;;;;;43.85;23.40;;;9.60;99.90;;;;;;5064239;28;20108;-63
2022/12/22 08:27:55;;;;;;;48.70;22.98;;;9.60;99.90;;;;;;5057013;28;20433;-60
2022/12/22 08:30:21;;;;;;;49.00;23.70;;;9.60;99.90;;;;;;5061050;28;20475;-61
2022/12/22 08:32:48;;;;;;;50.17;23.40;;;9.60;99.90;;;;;;5053188;28;20069;-61
2022/12/22 08:35:15;;;;;;;51.53;22.83;;;9.70;99.90;;;;;;5056404;28;20033;-61
2022/12/22 08:37:44;;;;;;;55.28;23.23;;;9.80;99.90;;;;;;5067630;28;20029;-63
2022/12/22 08:40:15;;;;;;;60.10;22.13;;;9.70;99.90;;;;;;5059788;28;20032;-62
2022/12/22 08:42:41;;;;;;;57.17;23.23;;;9.70;99.90;;;;;;5064719;28;20495;-62
2022/12/22 08:45:08;;;;;;;57.20;24.15;;;9.80;99.90;;;;;;5061659;28;20028;-62
2022/12/22 08:47:33;;;;;;;57.55;23.02;;;9.80;99.90;;;;;;5064350;28;20033;-62
2022/12/22 08:49:59;;;;;;;55.70;22.95;;;9.80;99.90;;;;;;5066339;28;20032;-61
2022/12/22 08:52:24;;;;;;;51.30;22.20;;;9.90;99.90;;;;;;5064590;28;20111;-62
2022/12/22 08:54:50;;;;;;;62.33;23.45;;;9.90;99.90;;;;;;5059432;28;20345;-62
2022/12/22 08:57:16;;;;;;;56.95;23.83;;;9.90;99.90;;;;;;5055692;28;20421;-62
2022/12/22 08:59:41;;;;;;;56.95;23.58;;;9.90;99.90;;;;;;5064420;28;20482;-62
2022/12/22 09:02:07;;;;;;;49.70;22.58;;;10.00;99.90;;;;;;5059353;28;20040;-62
2022/12/22 09:04:33;;;;;;;47.13;20.75;;;10.10;99.90;;;;;;5061010;28;20387;-62
2022/12/22 09:07:01;;;;;;;43.33;20.50;;;10.00;99.90;;;;;;5062128;28;20510;-62
2022/12/22 09:09:31;;;;;;;48.22;20.55;;;10.00;99.90;;;;;;5064569;28;20484;-62
2022/12/22 09:11:56;;;;;;;43.33;19.90;;;10.00;99.90;;;;;;5063010;28;20688;-62
2022/12/22 09:14:23;;;;;;;51.22;21.45;;;10.10;99.90;;;;;;5062800;28;20043;-62
2022/12/22 09:16:49;;;;;;;49.67;21.10;;;10.10;99.90;;;;;;5055163;28;20056;-63
2022/12/22 09:19:15;;;;;;;50.08;21.65;;;10.20;99.90;;;;;;5065612;28;20047;-62
2022/12/22 09:21:40;;;;;;;52.47;21.42;;;10.10;99.90;;;;;;5060637;28;20039;-62
2022/12/22 09:24:06;;;;;;;53.58;22.35;;;10.10;99.90;;;;;;5058499;28;20091;-62
2022/12/22 09:26:32;;;;;;;56.83;24.80;;;10.00;99.90;;;;;;5064493;28;20032;-62
2022/12/22 09:28:58;;;;;;;55.97;23.70;;;9.90;99.90;;;;;;5059660;28;20029;-62
2022/12/22 09:31:25;;;;;;;59.33;24.48;;;9.90;99.90;;;;;;5063801;28;20064;-62
2022/12/22 09:33:50;;;;;;;57.88;25.80;;;9.90;99.90;;;;;;5071621;28;20403;-62
2022/12/22 09:36:19;;;;;;;55.85;24.35;;;9.90;99.90;;;;;;5061924;28;20033;-61
2022/12/22 09:38:45;;;;;;;60.83;25.98;;;10.00;99.90;;;;;;5063801;28;20037;-61
2022/12/22 09:41:20;;;;;;;53.92;24.30;;;9.90;99.90;;;;;;5066897;28;20039;-62
2022/12/22 09:43:46;;;;;;;60.78;26.10;;;10.00;99.90;;;;;;5064247;28;20486;-61
2022/12/22 09:46:25;;;;;;;61.58;25.98;;;10.00;99.90;;;;;;5066953;28;20052;-61
2022/12/22 09:48:51;;;;;;;65.40;27.88;;;10.10;99.90;;;;;;5069826;28;20035;-62
2022/12/22 09:51:17;;;;;;;68.35;27.73;;;10.10;99.90;;;;;;5059085;28;20048;-60
2022/12/22 09:53:46;;;;;;;67.78;27.83;;;10.10;99.90;;;;;;5056900;28;20114;-61
2022/12/22 09:56:14;;;;;;;58.38;24.27;;;10.20;99.90;;;;;;5060957;28;20039;-61
2022/12/22 09:58:41;;;;;;;63.58;26.38;;;10.10;99.90;;;;;;5068829;28;20039;-61
2022/12/22 10:01:19;;;;;;;67.25;26.48;;;10.20;99.90;;;;;;5065274;28;20071;-61
2022/12/22 10:04:04;;;;;;;65.15;26.58;;;10.10;99.90;;;;;;5063482;28;20129;-61
2022/12/22 10:06:38;;;;;;;69.78;27.92;;;10.10;99.90;;;;;;5060257;28;20044;-61
2022/12/22 10:09:16;;;;;;;69.32;27.55;;;10.10;99.90;;;;;;5061918;28;20063;-62
2022/12/22 10:11:54;;;;;;;71.82;28.20;;;10.10;99.90;;;;;;5060931;28;20421;-62
2022/12/22 10:14:20;;;;;;;72.63;28.52;;;10.10;99.90;;;;;;5065610;28;20048;-62
2022/12/22 10:16:46;;;;;;;69.97;28.80;;;10.10;99.90;;;;;;5064757;28;20036;-62
2022/12/22 10:19:13;;;;;;;71.45;28.15;;;10.10;99.90;;;;;;5060466;28;20056;-62
2022/12/22 10:21:40;;;;;;;69.68;27.77;;;10.10;99.90;;;;;;5064199;28;20040;-62
2022/12/22 10:24:26;;;;;;;73.10;29.30;;;10.10;99.90;;;;;;5057380;28;20190;-62
2022/12/22 10:27:00;;;;;;;73.88;30.25;;;10.00;99.90;;;;;;5056880;28;20082;-61
2022/12/22 10:29:27;;;;;;;75.43;30.55;;;10.00;99.90;;;;;;5060765;28;20040;-62
2022/12/22 10:32:01;;;;;;;70.75;28.58;;;10.20;99.90;;;;;;5059245;28;20036;-62
2022/12/22 10:34:27;;;;;;;66.55;28.15;;;10.40;99.90;;;;;;5060714;28;20036;-61
2022/12/22 10:37:02;;;;;;;66.60;28.48;;;10.30;99.90;;;;;;5058122;28;20039;-60
2022/12/22 10:39:34;;;;;;;63.53;26.95;;;10.20;99.90;;;;;;5056992;28;20037;-61
2022/12/22 10:42:06;;;;;;;67.90;27.98;;;10.30;99.90;;;;;;5059424;28;20025;-62
2022/12/22 10:44:34;;;;;;;63.90;27.23;;;10.30;99.90;;;;;;5056402;28;20037;-60
2022/12/22 10:47:10;;;;;;;66.05;27.77;;;10.30;99.90;;;;;;5061384;28;20032;-61
2022/12/22 10:49:43;;;;;;;68.00;28.92;;;10.30;99.90;;;;;;5065333;28;20441;-62
2022/12/22 10:52:09;;;;;;;;;;;10.10;99.90;;;;;;5069016;28;20044;-61
2022/12/22 10:54:35;;;;;;;62.67;26.98;;;10.10;99.90;;;;;;5062627;28;19913;-62
2022/12/22 10:57:04;;;;;;;64.57;27.67;;;10.10;99.90;;;;;;5065467;28;20062;-61
2022/12/22 10:59:30;;;;;;;64.70;28.25;;;10.20;99.90;;;;;;5056106;28;20649;-63
2022/12/22 11:02:24;;;;;;;61.47;27.33;;;10.20;99.90;;;;;;5054492;28;20028;-61
2022/12/22 11:04:50;;;;;;;63.00;27.92;;;10.20;99.90;;;;;;5063041;28;20426;-61
2022/12/22 11:07:16;;;;;;;62.33;26.38;;;10.40;99.90;;;;;;5058127;28;20094;-62
2022/12/22 11:09:42;;;;;;;55.40;26.48;;;10.40;99.90;;;;;;5058096;28;20040;-62
2022/12/22 11:12:16;;;;;;;51.78;26.05;;;10.30;99.90;;;;;;5060828;28;20059;-62
2022/12/22 11:14:50;;;;;;;49.83;24.83;;;10.20;99.90;;;;;;5059469;28;20422;-61
2022/12/22 11:17:21;;;;;;;49.80;23.95;;;10.20;99.90;;;;;;5060233;28;20396;-61
2022/12/22 11:20:36;;;;;;;50.22;25.15;;;10.10;99.90;;;;;;5060761;28;20041;-62
2022/12/22 11:23:28;;;;;;;;;;;10.20;99.90;;;;;;5040860;28;20094;-62
2022/12/22 11:26:19;;;;;;;42.35;23.58;;;10.20;99.90;;;;;;5063558;28;19920;-62
2022/12/22 11:28:50;;;;;;;41.33;22.30;;;10.10;99.90;;;;;;5063261;28;20299;-61
2022/12/22 11:31:34;;;;;;;45.92;21.60;;;10.20;99.90;;;;;;5061225;28;20057;-62
2022/12/22 11:34:22;;;;;;;;;;;10.10;99.90;;;;;;5062367;28;20039;-62
2022/12/22 11:37:16;;;;;;;37.65;19.98;;;10.10;99.90;;;;;;5063918;28;19913;-62
2022/12/22 11:40:11;;;;;;;41.25;22.30;;;10.20;99.90;;;;;;5063406;28;20082;-62
2022/12/22 11:43:01;;;;;;;37.65;20.55;;;10.20;99.90;;;;;;5057259;28;20032;-61
2022/12/22 11:45:52;;;;;;;35.55;20.05;;;10.30;99.90;;;;;;5062840;28;20086;-62
2022/12/22 11:48:55;;;;;;;36.83;19.80;;;10.20;99.90;;;;;;5063642;28;20500;-61
2022/12/22 11:51:47;;;;;;;50.17;22.83;;;10.30;99.90;;;;;;5059809;28;20463;-60
2022/12/22 11:54:27;;;;;;;42.78;22.08;;;10.30;99.90;;;;;;5064753;28;20387;-61
2022/12/22 11:57:06;;;;;;;38.70;21.00;;;10.30;99.90;;;;;;5058300;28;20480;-61
2022/12/22 11:59:44;;;;;;;40.53;21.88;;;10.20;99.90;;;;;;5060145;28;20501;-61
2022/12/22 12:02:32;;;;;;;43.83;21.65;;;10.10;99.90;;;;;;5061821;28;20033;-61
2022/12/22 12:05:30;;;;;;;36.25;20.92;;;10.10;99.90;;;;;;5062336;28;20103;-62
2022/12/22 12:08:03;;;;;;;40.70;21.88;;;10.10;99.90;;;;;;5066010;28;20032;-62
2022/12/22 12:10:56;;;;;;;36.97;20.63;;;10.00;99.90;;;;;;5070247;28;20554;-61
2022/12/22 12:13:55;;;;;;;40.65;21.73;;;10.00;99.90;;;;;;5062050;28;20059;-62
2022/12/22 12:16:57;;;;;;;39.85;20.77;;;10.10;99.90;;;;;;5059828;28;21533;-62
2022/12/22 12:20:01;;;;;;;42.50;23.42;;;10.10;99.90;;;;;;5045820;28;20133;-62
2022/12/22 12:22:57;;;;;;;46.75;25.45;;;10.10;99.90;;;;;;5074340;28;20040;-63
2022/12/22 12:25:33;;;;;;;48.72;26.25;;;10.20;99.90;;;;;;5068557;28;20032;-61
2022/12/22 12:28:25;;;;;;;46.38;27.73;;;10.20;99.90;;;;;;5064675;28;20082;-62
2022/12/22 12:31:00;;;;;;;43.08;25.85;;;10.20;99.90;;;;;;5069793;28;20029;-61
2022/12/22 12:33:43;;;;;;;45.45;26.20;;;10.00;99.90;;;;;;5068716;28;20041;-61
2022/12/22 12:36:44;;;;;;;45.00;26.57;;;10.00;99.90;;;;;;5064205;28;20024;-61
2022/12/22 12:39:31;;;;;;;40.40;24.63;;;10.10;99.90;;;;;;5024695;28;20040;-62
2022/12/22 12:42:34;;;;;;;41.05;26.10;;;10.10;99.90;;;;;;5054133;28;20029;-62
2022/12/22 12:45:01;;;;;;;47.65;26.15;;;10.20;99.90;;;;;;5060329;28;20133;-62
2022/12/22 12:47:34;;;;;;;47.53;26.20;;;10.20;99.90;;;;;;5053604;28;20029;-62
2022/12/22 12:49:59;;;;;;;41.22;26.50;;;10.20;99.90;;;;;;5061492;28;20070;-62
2022/12/22 12:52:42;;;;;;;40.35;24.70;;;10.20;99.90;;;;;;5063404;28;20032;-62
2022/12/22 12:55:28;;;;;;;44.00;25.02;;;10.20;99.90;;;;;;5064178;28;20028;-62
2022/12/22 12:57:56;;;;;;;37.67;21.58;;;10.20;99.90;;;;;;5062385;28;20020;-62
2022/12/22 13:00:33;;;;;;;35.20;20.35;;;10.20;99.90;;;;;;5063778;28;20043;-62
2022/12/22 13:03:06;;;;;;;30.33;17.95;;;10.10;99.90;;;;;;5061263;28;20043;-62
2022/12/22 13:05:47;;;;;;;;;;;10.10;99.90;;;;;;5064014;28;20029;-61
2022/12/22 13:08:21;;;;;;;26.98;17.15;;;10.10;99.90;;;;;;5057185;28;19913;-63
2022/12/22 13:10:53;;;;;;;33.58;17.55;;;10.10;99.90;;;;;;5065849;28;20491;-63
2022/12/22 13:13:21;;;;;;;29.13;18.85;;;10.10;99.90;;;;;;5072088;28;20054;-63
2022/12/22 13:16:10;;;;;;;31.50;18.02;;;10.10;99.90;;;;;;5067772;28;20100;-63
2022/12/22 13:18:41;;;;;;;33.08;18.00;;;10.00;99.90;;;;;;5021454;28;20499;-62
2022/12/22 13:21:24;;;;;;;26.90;17.27;;;10.10;99.90;;;;;;5065166;28;20045;-62
2022/12/22 13:23:55;;;;;;;30.10;18.08;;;10.20;99.90;;;;;;5064143;28;20048;-61
2022/12/22 13:26:22;;;;;;;29.20;17.13;;;10.10;99.90;;;;;;5060928;28;21671;-61
2022/12/22 13:28:58;;;;;;;27.73;17.48;;;10.10;99.90;;;;;;5062766;28;20127;-63
2022/12/22 13:31:29;;;;;;;42.33;25.55;;;10.00;99.90;;;;;;5057004;28;20075;-63
2022/12/22 13:34:15;;;;;;;28.40;18.00;;;10.00;99.90;;;;;;5062126;28;20518;-61
2022/12/22 13:36:42;;;;;;;29.15;17.55;;;10.20;99.90;;;;;;5057364;28;20098;-61
2022/12/22 13:39:13;;;;;;;28.88;18.60;;;10.20;99.90;;;;;;5068832;28;20431;-63
2022/12/22 13:41:42;;;;;;;29.38;17.17;;;10.30;99.90;;;;;;5067516;28;20684;-61
2022/12/22 13:44:14;;;;;;;28.88;17.10;;;10.30;99.90;;;;;;5058237;28;20037;-62
2022/12/22 13:46:41;;;;;;;27.95;17.33;;;10.40;99.90;;;;;;5058996;28;20056;-61
2022/12/22 13:49:11;;;;;;;30.08;17.98;;;10.40;99.90;;;;;;5067857;28;20110;-61
2022/12/22 13:51:38;;;;;;;31.98;17.30;;;10.40;99.90;;;;;;5065770;28;20515;-62
2022/12/22 13:54:25;;;;;;;25.70;16.48;;;10.40;99.90;;;;;;5056853;28;20041;-62
2022/12/22 13:56:55;;;;;;;25.30;15.07;;;10.40;99.90;;;;;;5056831;28;20677;-62
2022/12/22 13:59:45;;;;;;;24.48;14.90;;;10.30;99.90;;;;;;5066104;28;20503;-61
2022/12/22 14:02:11;;;;;;;25.35;13.75;;;10.50;99.90;;;;;;5063127;28;20723;-61
2022/12/22 14:04:39;;;;;;;23.90;12.95;;;10.40;99.90;;;;;;5063302;28;20416;-61
2022/12/22 14:07:12;;;;;;;24.83;13.65;;;10.30;99.90;;;;;;5062935;28;20131;-61
2022/12/22 14:09:43;;;;;;;22.40;13.30;;;10.40;99.90;;;;;;5062710;28;20500;-62
2022/12/22 14:12:19;;;;;;;20.85;13.30;;;10.40;99.90;;;;;;5060519;28;20055;-62
2022/12/22 14:14:47;;;;;;;20.17;13.40;;;10.30;99.90;;;;;;5060826;28;20333;-61
2022/12/22 14:17:26;;;;;;;21.83;13.63;;;10.20;99.90;;;;;;5063192;28;20047;-60
2022/12/22 14:19:55;;;;;;;20.30;13.18;;;10.00;99.90;;;;;;5066834;28;20036;-61
2022/12/22 14:22:35;;;;;;;22.80;13.80;;;10.20;99.90;;;;;;5058556;28;20025;-61
2022/12/22 14:25:10;;;;;;;24.88;14.10;;;10.20;99.90;;;;;;5059825;28;20562;-62
2022/12/22 14:27:57;;;;;;;22.02;14.25;;;10.20;99.90;;;;;;5057052;28;20036;-61
2022/12/22 14:30:33;;;;;;;21.65;13.38;;;10.20;99.90;;;;;;5057877;28;20647;-61
2022/12/22 14:33:22;;;;;;;20.13;13.18;;;10.20;99.90;;;;;;5064600;28;20280;-61
2022/12/22 14:35:47;;;;;;;22.63;13.68;;;10.10;99.90;;;;;;5058169;28;20032;-63
2022/12/22 14:38:23;;;;;;;20.42;13.30;;;10.20;99.90;;;;;;5060523;28;20031;-60
2022/12/22 14:40:50;;;;;;;19.75;13.25;;;9.90;99.90;;;;;;5061595;28;20502;-60
2022/12/22 14:43:18;;;;;;;20.08;13.23;;;9.80;99.90;;;;;;5060048;28;20032;-61
2022/12/22 14:45:46;;;;;;;22.65;12.95;;;9.80;99.90;;;;;;5062689;28;20037;-60
2022/12/22 14:48:21;;;;;;;18.48;12.35;;;9.80;99.90;;;;;;5057719;28;20484;-62
2022/12/22 14:50:48;;;;;;;16.17;11.65;;;9.80;99.90;;;;;;5062692;28;20422;-62
2022/12/22 14:53:20;;;;;;;18.70;11.18;;;9.90;99.90;;;;;;5059959;28;20045;-61
2022/12/22 14:55:50;;;;;;;17.48;10.55;;;9.80;99.90;;;;;;5065122;28;20082;-61
2022/12/22 14:58:22;;;;;;;13.48;9.70;;;9.90;99.90;;;;;;5061396;28;20048;-60
2022/12/22 15:01:20;;;;;;;11.55;8.77;;;9.90;99.90;;;;;;5063411;28;20047;-62
2022/12/22 15:04:05;;;;;;;11.27;8.55;;;9.80;99.90;;;;;;5059469;28;20104;-61
2022/12/22 15:06:35;;;;;;;13.82;8.65;;;9.90;99.90;;;;;;5061019;28;20037;-61
2022/12/22 15:09:05;;;;;;;11.77;7.82;;;9.70;99.90;;;;;;5062393;28;20060;-60
2022/12/22 15:11:31;;;;;;;11.68;7.88;;;9.80;99.90;;;;;;5060311;28;20036;-61
2022/12/22 15:13:57;;;;;;;12.25;7.97;;;9.70;99.90;;;;;;5059095;28;20060;-61
2022/12/22 15:16:23;;;;;;;13.25;8.43;;;9.90;99.90;;;;;;5065587;28;20119;-62
2022/12/22 15:18:50;;;;;;;10.40;7.60;;;9.90;99.90;;;;;;5059883;28;20511;-63
2022/12/22 15:21:17;;;;;;;10.88;8.05;;;9.80;99.90;;;;;;5064164;28;20032;-61
2022/12/22 15:23:43;;;;;;;11.93;7.90;;;9.80;99.90;;;;;;5063976;28;20139;-61
2022/12/22 15:26:09;;;;;;;10.50;7.97;;;9.70;99.90;;;;;;5056074;28;20603;-61
2022/12/22 15:28:35;;;;;;;11.95;7.82;;;9.60;99.90;;;;;;5063104;28;20468;-63
2022/12/22 15:31:02;;;;;;;10.88;7.45;;;9.50;99.90;;;;;;5059074;28;20047;-63
2022/12/22 15:33:29;;;;;;;12.00;8.10;;;9.60;99.90;;;;;;5064286;28;20040;-63
2022/12/22 15:35:56;;;;;;;10.63;8.23;;;9.60;99.90;;;;;;5059838;28;20495;-63
2022/12/22 15:38:23;;;;;;;16.10;8.65;;;9.60;99.90;;;;;;5062302;28;20037;-62
2022/12/22 15:40:50;;;;;;;13.38;9.18;;;9.50;99.90;;;;;;5057649;28;20043;-61
2022/12/22 15:43:16;;;;;;;14.40;9.82;;;9.50;99.90;;;;;;5060538;28;20037;-62
2022/12/22 15:45:43;;;;;;;52.28;32.15;;;9.50;99.90;;;;;;5061933;28;20033;-62
2022/12/22 15:48:37;;;;;;;165.65;100.97;;;9.60;99.90;;;;;;5072359;28;20028;-62
2022/12/22 15:51:06;;;;;;;49.17;35.63;;;9.70;99.90;;;;;;5062076;28;20029;-62
2022/12/22 15:53:33;;;;;;;35.15;25.88;;;9.60;99.90;;;;;;5065900;28;20038;-62
2022/12/22 15:55:59;;;;;;;33.60;23.58;;;9.60;99.90;;;;;;5062786;28;20028;-61
2022/12/22 15:58:29;;;;;;;49.58;33.92;;;9.50;99.90;;;;;;5060574;28;20033;-61
2022/12/22 16:00:55;;;;;;;23.13;15.75;;;9.60;99.90;;;;;;5066065;28;20067;-61
2022/12/22 16:03:20;;;;;;;21.30;15.48;;;9.60;99.90;;;;;;5064729;28;20031;-62
2022/12/22 16:05:46;;;;;;;21.27;15.85;;;9.60;99.90;;;;;;5062124;28;20045;-62
2022/12/22 16:08:15;;;;;;;22.38;16.42;;;9.60;99.90;;;;;;5062316;28;20503;-64
2022/12/22 16:10:41;;;;;;;20.92;15.57;;;9.50;99.90;;;;;;5060914;28;20033;-64
2022/12/22 16:13:12;;;;;;;68.88;50.85;;;9.60;99.90;;;;;;5060019;28;21571;-63
2022/12/22 16:15:38;;;;;;;25.25;18.25;;;9.70;99.90;;;;;;5058365;28;20365;-64
2022/12/22 16:18:04;;;;;;;28.33;20.13;;;9.60;99.90;;;;;;5060690;28;20389;-63
2022/12/22 16:20:36;;;;;;;25.40;18.00;;;9.70;99.90;;;;;;5063783;28;20032;-63
2022/12/22 16:23:04;;;;;;;21.38;16.55;;;9.60;99.90;;;;;;5059672;28;20777;-63
2022/12/22 16:25:34;;;;;;;20.45;15.80;;;9.50;99.90;;;;;;5057858;28;20055;-62
2022/12/22 16:28:01;;;;;;;28.02;20.55;;;9.40;99.90;;;;;;5062067;28;20135;-62
2022/12/22 16:30:29;;;;;;;21.15;16.75;;;9.40;99.90;;;;;;5070376;28;20736;-62
2022/12/22 16:32:55;;;;;;;21.75;16.15;;;9.40;99.90;;;;;;5060018;28;20488;-63
2022/12/22 16:35:23;;;;;;;26.05;19.20;;;9.40;99.90;;;;;;5057820;28;20083;-63